Time;durP1;ratioP1;P1;durP2;ratioP2;P2;SDS_P1;SDS_P2;PMS_P1;PMS_P2;Temp;Humidity;BMP_temperature;BMP_pressure;BME280_temperature;BME280_humidity;BME280_pressure;Samples;Min_cycle;Max_cycle;Signal;HPM_P1;HPM_P2
2022/06/27 00:01:05;;;;;;;1.63;1.05;;;;;;;15.87;53.34;101563.88;4999594;28;20177;-79
2022/06/27 00:03:31;;;;;;;3.30;1.20;;;;;;;15.85;53.57;101560.47;4999640;28;20503;-77
2022/06/27 00:05:57;;;;;;;1.45;1.13;;;;;;;15.84;53.28;101554.34;4999956;28;20038;-77
2022/06/27 00:08:22;;;;;;;2.45;1.23;;;;;;;15.75;53.92;101558.31;4997647;28;20091;-79
2022/06/27 00:10:48;;;;;;;2.40;1.17;;;;;;;15.74;53.92;101575.03;5001975;28;20038;-77
2022/06/27 00:13:14;;;;;;;3.13;1.48;;;;;;;15.64;54.19;101580.84;5001227;28;20042;-77
2022/06/27 00:15:39;;;;;;;5.20;1.58;;;;;;;15.40;54.27;101581.16;5001915;28;20030;-77
2022/06/27 00:18:05;;;;;;;3.28;1.17;;;;;;;15.62;54.28;101580.06;4982402;28;20045;-77
2022/06/27 00:20:30;;;;;;;1.60;1.25;;;;;;;15.59;54.06;101560.88;4983157;28;20045;-77
2022/06/27 00:22:56;;;;;;;2.97;1.80;;;;;;;15.59;54.08;101555.59;5012998;28;20488;-78
2022/06/27 00:25:21;;;;;;;2.45;1.90;;;;;;;15.58;54.41;101559.16;5001344;28;20648;-78
2022/06/27 00:27:47;;;;;;;4.07;1.67;;;;;;;15.65;54.33;101550.94;4999265;28;20095;-79
2022/06/27 00:30:13;;;;;;;3.33;1.63;;;;;;;15.58;54.11;101559.16;4985427;28;20030;-77
2022/06/27 00:32:40;;;;;;;4.00;2.22;;;;;;;15.42;54.36;101560.00;4984418;28;20042;-77
2022/06/27 00:35:06;;;;;;;2.20;1.55;;;;;;;15.48;54.77;101559.69;5001820;28;20030;-76
2022/06/27 00:37:32;;;;;;;3.63;1.45;;;;;;;15.58;54.63;101558.28;4999222;28;20132;-77
2022/06/27 00:39:58;;;;;;;4.70;1.55;;;;;;;15.77;54.10;101568.75;5000641;28;20101;-77
2022/06/27 00:42:23;;;;;;;1.58;1.13;;;;;;;15.85;53.91;101576.28;4999532;28;20524;-78
2022/06/27 00:44:49;;;;;;;2.83;1.30;;;;;;;15.91;53.14;101573.34;4987265;28;20555;-77
2022/06/27 00:47:15;;;;;;;5.13;1.50;;;;;;;15.92;53.23;101577.66;5003887;28;20042;-76
2022/06/27 00:49:42;;;;;;;2.40;1.35;;;;;;;15.89;52.77;101567.28;5004166;28;20037;-78
2022/06/27 00:52:10;;;;;;;3.85;1.05;;;;;;;15.89;53.03;101573.41;5001604;28;20046;-76
2022/06/27 00:54:37;;;;;;;2.25;1.58;;;;;;;16.02;53.06;101568.38;5005336;28;20032;-77
2022/06/27 00:57:04;;;;;;;1.98;1.77;;;;;;;16.07;52.57;101570.78;5003606;28;20053;-76
2022/06/27 00:59:30;;;;;;;2.38;0.80;;;;;;;16.06;52.09;101564.63;4988158;28;20626;-76
2022/06/27 01:01:55;;;;;;;2.22;1.00;;;;;;;16.14;51.92;101573.00;4986486;28;20034;-79
2022/06/27 01:04:22;;;;;;;1.55;0.90;;;;;;;16.30;51.49;101572.19;5004661;28;20034;-77
2022/06/27 01:06:53;;;;;;;1.20;0.80;;;;;;;16.37;51.44;101569.13;5018368;28;20493;-77
2022/06/27 01:09:23;;;;;;;5.18;1.30;;;;;;;16.30;51.39;101567.75;5022071;28;20073;-78
2022/06/27 01:11:50;;;;;;;4.35;1.10;;;;;;;16.16;51.63;101565.03;5002749;28;20037;-78
2022/06/27 01:14:16;;;;;;;1.77;0.60;;;;;;;16.23;51.44;101563.75;4992425;28;20037;-78
2022/06/27 01:16:42;;;;;;;6.43;1.50;;;;;;;16.23;51.34;101579.59;5006515;28;20056;-77
2022/06/27 01:19:10;;;;;;;1.40;1.00;;;;;;;16.28;51.49;101588.09;5024620;28;20516;-76
2022/06/27 01:21:40;;;;;;;1.67;0.75;;;;;;;16.25;51.89;101604.09;5006599;28;20038;-77
2022/06/27 01:24:06;;;;;;;2.83;0.85;;;;;;;16.24;52.42;101614.72;5007988;28;20039;-78
2022/06/27 01:26:32;;;;;;;0.88;0.60;;;;;;;16.18;52.38;101594.81;5006668;28;20392;-79
2022/06/27 01:28:58;;;;;;;2.70;1.00;;;;;;;16.09;52.58;101582.09;5003883;28;20054;-79
2022/06/27 01:31:24;;;;;;;2.08;0.98;;;;;;;16.03;52.99;101582.41;5005340;28;20045;-77
2022/06/27 01:33:50;;;;;;;2.10;0.98;;;;;;;16.03;52.83;101585.06;5000933;28;20034;-75
2022/06/27 01:39:00;;;;;;;1.25;1.02;;;;;;;15.98;53.32;101599.28;5003166;28;20041;-77
2022/06/27 01:41:26;;;;;;;2.38;0.95;;;;;;;15.96;53.32;101601.16;5003103;28;20042;-76
2022/06/27 01:43:52;;;;;;;3.38;1.80;;;;;;;15.83;53.55;101609.75;4999074;28;20721;-77
2022/06/27 01:46:18;;;;;;;5.28;0.80;;;;;;;15.55;53.90;101626.94;5004262;28;20102;-78
2022/06/27 01:48:43;;;;;;;3.00;0.98;;;;;;;15.14;54.78;101616.59;4983274;28;20076;-78
2022/06/27 01:51:09;;;;;;;2.45;1.00;;;;;;;14.75;55.96;101615.75;5023256;28;20307;-77
2022/06/27 01:53:36;;;;;;;3.33;0.93;;;;;;;14.72;56.18;101615.91;5019748;28;20134;-77
2022/06/27 01:56:03;;;;;;;8.02;1.38;;;;;;;14.64;56.55;101612.78;5017582;28;20120;-78
2022/06/27 01:58:33;;;;;;;2.22;1.40;;;;;;;14.75;56.63;101614.91;4990765;28;20464;-78
2022/06/27 02:00:59;;;;;;;5.38;1.63;;;;;;;14.73;56.86;101614.97;5001951;28;20084;-75
2022/06/27 02:03:25;;;;;;;2.75;0.85;;;;;;;14.75;57.11;101615.75;4985913;28;20496;-78
2022/06/27 02:05:54;;;;;;;4.95;0.93;;;;;;;14.73;56.45;101617.63;5002688;28;20038;-77
2022/06/27 02:08:22;;;;;;;5.97;1.20;;;;;;;14.80;56.48;101618.19;5003419;28;20037;-77
2022/06/27 02:10:49;;;;;;;4.65;1.05;;;;;;;14.97;56.38;101609.53;5001521;28;20037;-78
2022/06/27 02:13:15;;;;;;;5.22;1.73;;;;;;;15.18;55.99;101602.38;5018898;28;20072;-78
2022/06/27 02:16:03;;;;;;;4.15;1.02;;;;;;;15.07;55.68;101594.97;5002310;28;20571;-77
2022/06/27 02:18:30;;;;;;;2.42;1.10;;;;;;;15.29;54.95;101586.94;4987992;28;20049;-78
2022/06/27 02:20:56;;;;;;;4.30;1.02;;;;;;;15.28;55.41;101587.00;5000101;28;20472;-78
2022/06/27 02:23:21;;;;;;;11.88;1.98;;;;;;;15.27;55.35;101588.78;4988523;28;20052;-77
2022/06/27 02:25:50;;;;;;;3.28;1.20;;;;;;;15.23;54.71;101610.06;5003341;28;20397;-77
2022/06/27 02:28:17;;;;;;;2.53;1.17;;;;;;;15.08;54.89;101628.28;5002145;28;20045;-75
2022/06/27 02:30:43;;;;;;;4.63;1.25;;;;;;;14.94;55.29;101642.06;4987879;28;20049;-76
2022/06/27 02:33:09;;;;;;;6.93;1.25;;;;;;;14.22;56.88;101654.94;5002543;28;20042;-75
2022/06/27 02:35:36;;;;;;;2.25;1.33;;;;;;;14.15;57.17;101657.84;5004376;28;20041;-77
2022/06/27 02:38:02;;;;;;;2.92;1.30;;;;;;;13.98;57.77;101656.84;5003441;28;20052;-78
2022/06/27 02:40:29;;;;;;;2.38;1.70;;;;;;;13.91;57.80;101638.69;5006592;28;20041;-77
2022/06/27 02:42:58;;;;;;;2.58;1.55;;;;;;;13.80;58.44;101624.31;4988128;28;20046;-77
2022/06/27 02:45:29;;;;;;;3.42;1.65;;;;;;;14.01;57.85;101627.78;5008432;28;20057;-77
2022/06/27 02:47:57;;;;;;;3.45;1.90;;;;;;;14.07;57.54;101625.75;4984551;28;20597;-78
2022/06/27 02:50:26;;;;;;;3.08;1.10;;;;;;;13.92;58.19;101618.53;5003829;28;20428;-77
2022/06/27 02:52:55;;;;;;;5.53;1.80;;;;;;;13.83;58.25;101617.16;5003387;28;20049;-78
2022/06/27 02:55:27;;;;;;;3.83;2.15;;;;;;;13.76;58.33;101613.06;4989869;28;20030;-79
2022/06/27 02:58:02;;;;;;;4.15;1.60;;;;;;;13.74;58.88;101591.25;5002459;28;20050;-77
2022/06/27 03:00:29;;;;;;;3.13;1.40;;;;;;;13.87;58.51;101595.06;5003700;28;20046;-78
2022/06/27 03:02:58;;;;;;;3.78;1.65;;;;;;;13.90;58.34;101600.22;4990960;28;20046;-80
2022/06/27 03:05:33;;;;;;;2.40;1.17;;;;;;;14.00;58.01;101616.44;4993605;28;20033;-79
2022/06/27 03:07:58;;;;;;;3.63;1.40;;;;;;;13.89;58.14;101603.75;5004635;28;20407;-80
2022/06/27 03:10:24;;;;;;;3.15;1.63;;;;;;;13.81;58.67;101595.34;5007685;28;20033;-80
2022/06/27 03:12:50;;;;;;;4.85;1.40;;;;;;;13.84;59.23;101599.63;5006538;28;20106;-75
2022/06/27 03:15:16;;;;;;;4.30;1.13;;;;;;;13.99;58.14;101609.47;5010368;28;20025;-79
2022/06/27 03:17:44;;;;;;;3.65;1.15;;;;;;;13.96;58.54;101614.00;4989652;28;20053;-77
2022/06/27 03:20:27;;;;;;;3.67;1.40;;;;;;;13.89;58.23;101635.28;5006403;28;20574;-79
2022/06/27 03:23:15;;;;;;;2.15;0.93;;;;;;;13.93;58.64;101604.47;5017627;28;20089;-78
2022/06/27 03:25:44;;;;;;;2.92;1.25;;;;;;;13.72;58.48;101565.06;4993260;28;20040;-78
2022/06/27 03:28:10;;;;;;;2.33;1.77;;;;;;;13.83;58.85;101585.63;5006624;28;20041;-77
2022/06/27 03:30:36;;;;;;;3.20;1.00;;;;;;;13.75;58.27;101605.25;5004849;28;20057;-79
2022/06/27 03:33:02;;;;;;;2.10;0.70;;;;;;;13.78;58.51;101610.38;5004954;28;20042;-80
2022/06/27 03:35:32;;;;;;;1.52;1.10;;;;;;;13.87;58.87;101616.09;5010738;28;20578;-77
2022/06/27 03:38:00;;;;;;;2.25;0.80;;;;;;;13.94;58.50;101588.66;5005496;28;20065;-77
2022/06/27 03:40:26;;;;;;;2.25;0.85;;;;;;;13.71;58.74;101567.75;5007445;28;20052;-80
2022/06/27 03:42:51;;;;;;;3.13;1.40;;;;;;;13.75;58.88;101584.25;5004424;28;20727;-77
2022/06/27 03:45:18;;;;;;;2.60;1.40;;;;;;;13.91;58.79;101596.66;5001659;28;20057;-79
2022/06/27 03:47:56;;;;;;;5.47;0.90;;;;;;;13.92;58.55;101618.53;4982612;28;20115;-78
2022/06/27 03:50:31;;;;;;;1.92;1.02;;;;;;;13.87;57.92;101631.84;5010823;28;20168;-76
2022/06/27 03:52:57;;;;;;;2.80;1.38;;;;;;;13.82;58.22;101618.06;4996742;28;20913;-77
2022/06/27 03:55:23;;;;;;;3.90;0.93;;;;;;;13.73;58.70;101607.94;5000487;28;20030;-80
2022/06/27 03:57:53;;;;;;;2.95;0.90;;;;;;;13.92;58.28;101587.84;4996897;28;20069;-80
2022/06/27 04:00:23;;;;;;;2.25;0.88;;;;;;;14.14;57.84;101598.31;5000748;28;20474;-76
2022/06/27 04:02:53;;;;;;;2.47;0.82;;;;;;;14.15;57.64;101599.16;4982686;28;20082;-79
2022/06/27 04:05:32;;;;;;;4.97;0.93;;;;;;;14.15;57.80;101594.75;5001562;28;20053;-79
2022/06/27 04:07:58;;;;;;;5.53;1.27;;;;;;;14.10;57.93;101586.22;5012382;28;20806;-78
2022/06/27 04:10:24;;;;;;;3.75;1.30;;;;;;;14.09;58.09;101579.22;4998307;28;20083;-79
2022/06/27 04:12:49;;;;;;;5.70;1.65;;;;;;;13.94;58.23;101578.13;4998409;28;20077;-77
2022/06/27 04:15:33;;;;;;;4.72;1.60;;;;;;;14.00;58.26;101586.66;4997478;28;20038;-78
2022/06/27 04:18:17;;;;;;;7.43;1.38;;;;;;;14.08;58.13;101603.81;5000251;28;20068;-81
2022/06/27 04:20:58;;;;;;;4.75;1.80;;;;;;;14.16;58.00;101611.34;5001551;28;20072;-78
2022/06/27 04:23:33;;;;;;;5.25;1.95;;;;;;;14.20;57.60;101615.56;5004435;28;20129;-79
2022/06/27 04:26:16;;;;;;;4.55;2.38;;;;;;;14.11;57.59;101597.56;4989766;28;20029;-80
2022/06/27 04:28:43;;;;;;;4.20;1.80;;;;;;;14.05;57.83;101589.94;5004639;28;20057;-80
2022/06/27 04:31:10;;;;;;;2.28;1.05;;;;;;;14.21;57.69;101591.00;5007150;28;20124;-79
2022/06/27 04:33:36;;;;;;;4.88;1.20;;;;;;;14.27;57.53;101585.44;5002934;28;20108;-79
2022/06/27 04:36:02;;;;;;;2.83;2.03;;;;;;;14.14;57.29;101582.53;5001817;28;20872;-77
2022/06/27 04:38:28;;;;;;;5.95;1.88;;;;;;;14.07;57.88;101575.81;5004905;28;20140;-76
2022/06/27 04:41:33;;;;;;;2.47;1.70;;;;;;;14.32;57.72;101566.84;4997035;28;20571;-78
2022/06/27 04:43:58;;;;;;;4.75;2.75;;;;;;;14.29;57.67;101562.56;5000767;28;20034;-77
2022/06/27 04:46:24;;;;;;;3.00;1.92;;;;;;;14.07;57.70;101569.72;4998792;28;20585;-79
2022/06/27 04:48:50;;;;;;;8.20;2.10;;;;;;;14.09;58.10;101570.50;4999879;28;20052;-80
2022/06/27 04:51:16;;;;;;;4.10;2.58;;;;;;;14.13;57.83;101561.56;4999657;28;20026;-80
2022/06/27 04:53:43;;;;;;;5.65;1.23;;;;;;;14.17;58.22;101544.72;4999154;28;20038;-78
2022/06/27 04:56:09;;;;;;;3.60;1.70;;;;;;;14.07;58.21;101540.78;5000595;28;20030;-80
2022/06/27 04:58:35;;;;;;;4.07;1.60;;;;;;;14.04;58.57;101533.06;4995466;28;20417;-79
2022/06/27 05:01:01;;;;;;;3.95;1.35;;;;;;;14.07;58.16;101539.00;4998705;28;20055;-78
2022/06/27 05:03:56;;;;;;;3.13;2.05;;;;;;;14.30;57.70;101545.91;5003674;28;20524;-79
2022/06/27 05:06:26;;;;;;;2.08;1.08;;;;;;;14.27;57.53;101538.13;5001990;28;20041;-80
2022/06/27 05:08:52;;;;;;;3.58;1.13;;;;;;;14.26;57.71;101546.94;4980943;28;20136;-79
2022/06/27 05:11:18;;;;;;;2.95;1.40;;;;;;;14.24;57.12;101554.03;4984661;28;20821;-80
2022/06/27 05:13:44;;;;;;;5.05;2.03;;;;;;;13.92;57.81;101558.97;4997141;28;20046;-79
2022/06/27 05:21:04;;;;;;;2.38;1.10;;;;;;;14.24;57.03;101574.22;5001344;28;20110;-83
2022/06/27 05:24:34;;;;;;;7.78;1.10;;;;;;;14.31;56.92;101558.09;4995920;28;20045;-80
2022/06/27 05:28:23;;;;;;;1.58;0.80;;;;;;;14.33;56.96;101551.00;4921509;29;20054;-78
2022/06/27 05:32:31;;;;;;;3.78;1.23;;;;;;;14.46;57.26;101537.34;4924450;29;20873;-80
2022/06/27 05:36:04;;;;;;;4.97;1.10;;;;;;;14.56;56.81;101533.34;4850549;29;20057;-80
2022/06/27 05:43:42;;;;;;;4.45;1.30;;;;;;;14.71;56.99;101537.03;4798809;29;20049;-79
2022/06/27 05:54:44;;;;;;;2.17;1.50;;;;;;;14.63;57.03;101494.44;4710611;30;20109;-77
2022/06/27 05:58:26;;;;;;;2.30;0.68;;;;;;;14.77;56.89;101492.88;4726480;30;20094;-78
2022/06/27 06:02:26;;;;;;;2.65;1.25;;;;;;;15.02;55.55;101499.59;4760057;29;20053;-81
2022/06/27 06:13:58;;;;;;;8.57;1.17;;;;;;;14.95;55.56;101490.28;4813449;29;20084;-80
2022/06/27 06:21:22;;;;;;;2.83;0.57;;;;;;;15.03;54.79;101524.13;4889483;29;20052;-77
2022/06/27 06:24:57;;;;;;;19.13;2.42;;;;;;;14.97;55.52;101530.56;4927671;28;20113;-82
2022/06/27 06:36:32;;;;;;;13.55;2.10;;;;;;;14.81;57.02;101497.97;4885702;29;20048;-79
2022/06/27 06:40:02;;;;;;;43.83;5.63;;;;;;;14.79;56.74;101481.41;4904120;28;20053;-82
2022/06/27 06:43:59;;;;;;;2.35;0.90;;;;;;;15.11;56.54;101470.16;4906033;28;20058;-80
2022/06/27 06:47:46;;;;;;;2.17;0.45;;;;;;;15.20;56.78;101457.47;4886546;29;20054;-81
2022/06/27 06:51:47;;;;;;;10.30;1.02;;;;;;;15.43;56.01;101436.09;4888101;29;20079;-80
2022/06/27 06:55:10;;;;;;;8.32;1.70;;;;;;;15.59;55.97;101412.44;4868113;28;20090;-78
2022/06/27 06:57:38;;;;;;;6.53;1.70;;;;;;;15.89;55.30;101428.41;4933252;28;20097;-78
2022/06/27 07:00:06;;;;;;;3.72;0.93;;;;;;;16.15;54.42;101449.91;4959551;28;20108;-78
2022/06/27 07:02:31;;;;;;;11.52;4.68;;;;;;;16.20;54.05;101472.47;4995073;28;20045;-79
2022/06/27 07:04:58;;;;;;;3.75;1.20;;;;;;;16.12;53.03;101484.38;4990609;28;20044;-76
2022/06/27 07:07:25;;;;;;;1.65;0.88;;;;;;;15.98;54.19;101478.00;4981659;28;20046;-76
2022/06/27 07:09:52;;;;;;;5.03;0.98;;;;;;;15.98;54.30;101480.66;4993517;28;20041;-76
2022/06/27 07:12:18;;;;;;;3.58;0.85;;;;;;;15.96;53.99;101486.94;4992331;28;20045;-79
2022/06/27 07:14:45;;;;;;;15.73;1.35;;;;;;;16.38;53.12;101475.88;4995663;28;20095;-79
2022/06/27 07:17:11;;;;;;;11.52;1.50;;;;;;;16.80;52.13;101465.66;4997102;28;20054;-78
2022/06/27 07:19:38;;;;;;;25.75;4.85;;;;;;;17.02;51.33;101465.28;4993584;28;20029;-74
2022/06/27 07:22:06;;;;;;;33.35;4.82;;;;;;;17.37;51.44;101473.78;4994786;28;20045;-79
2022/06/27 07:24:34;;;;;;;19.57;3.83;;;;;;;17.51;51.21;101483.53;4996861;28;20041;-79
2022/06/27 07:27:00;;;;;;;4.80;0.93;;;;;;;17.69;49.91;101462.25;4994621;28;20597;-79
2022/06/27 07:29:29;;;;;;;2.55;0.52;;;;;;;18.15;49.35;101451.47;4995958;28;20516;-79
2022/06/27 07:31:55;;;;;;;5.97;1.40;;;;;;;18.01;48.73;101478.78;4975362;28;20049;-79
2022/06/27 07:34:21;;;;;;;1.83;0.63;;;;;;;17.64;49.18;101494.25;4997329;28;20030;-77
2022/06/27 07:36:48;;;;;;;1.88;0.68;;;;;;;16.94;49.87;101504.50;4978442;28;20068;-79
2022/06/27 07:39:14;;;;;;;8.15;3.35;;;;;;;16.79;50.72;101517.59;4996711;28;20299;-78
2022/06/27 07:41:40;;;;;;;6.55;1.50;;;;;;;16.58;51.77;101518.78;4995678;28;20131;-79
2022/06/27 07:44:05;;;;;;;3.22;0.80;;;;;;;16.40;52.03;101512.75;5009697;28;20045;-78
2022/06/27 07:46:32;;;;;;;4.35;0.70;;;;;;;16.55;52.49;101506.59;4995503;28;20508;-79
2022/06/27 07:48:58;;;;;;;2.38;0.70;;;;;;;16.77;51.25;101506.28;4990717;28;20760;-78
2022/06/27 07:51:24;;;;;;;3.22;0.85;;;;;;;16.88;51.06;101502.19;4994093;28;20037;-78
2022/06/27 07:53:51;;;;;;;7.32;0.80;;;;;;;16.95;51.06;101509.66;4992164;28;20042;-76
2022/06/27 07:56:18;;;;;;;2.63;0.77;;;;;;;16.92;50.98;101506.38;4985107;28;20034;-79
2022/06/27 07:58:44;;;;;;;1.88;0.68;;;;;;;16.83;50.54;101527.06;4999081;28;20041;-77
2022/06/27 08:01:11;;;;;;;8.70;0.93;;;;;;;16.71;50.97;101519.81;4981873;28;20377;-78
2022/06/27 08:03:42;;;;;;;20.58;3.28;;;;;;;16.61;51.00;101518.63;4999692;28;20042;-77
2022/06/27 08:06:15;;;;;;;13.60;2.47;;;;;;;16.67;51.24;101510.38;5001778;28;20044;-77
2022/06/27 08:08:57;;;;;;;3.95;0.82;;;;;;;16.88;50.60;101504.84;4993706;28;20042;-78
2022/06/27 08:11:28;;;;;;;0.68;0.30;;;;;;;17.07;50.59;101504.63;5001272;28;20093;-78
2022/06/27 08:13:56;;;;;;;8.23;0.63;;;;;;;17.08;50.67;101504.53;4996214;28;20124;-78
2022/06/27 08:16:24;;;;;;;2.40;0.45;;;;;;;17.05;50.67;101496.81;5001203;28;20033;-76
2022/06/27 08:18:51;;;;;;;2.35;0.63;;;;;;;16.95;50.56;101499.09;4998598;28;20113;-77
2022/06/27 08:21:23;;;;;;;0.85;0.43;;;;;;;16.81;51.23;101501.69;5001503;28;20380;-76
2022/06/27 08:23:49;;;;;;;1.90;0.60;;;;;;;16.96;50.76;101502.63;4998644;28;20046;-75
2022/06/27 08:26:16;;;;;;;2.00;0.52;;;;;;;17.32;50.65;101514.63;5000834;28;20041;-77
2022/06/27 08:28:43;;;;;;;2.17;0.45;;;;;;;17.36;49.90;101501.16;4999890;28;20046;-78
2022/06/27 08:31:12;;;;;;;1.00;0.60;;;;;;;17.27;50.32;101516.66;5000688;28;20425;-76
2022/06/27 08:33:39;;;;;;;1.63;1.00;;;;;;;17.39;49.98;101518.63;4999710;28;20128;-76
2022/06/27 08:36:06;;;;;;;1.05;0.47;;;;;;;17.23;50.11;101531.88;4983223;28;20535;-78
2022/06/27 08:38:39;;;;;;;2.08;0.60;;;;;;;17.29;50.33;101536.81;4999497;28;20130;-80
2022/06/27 08:41:07;;;;;;;1.25;0.60;;;;;;;17.35;50.30;101547.00;4998475;28;20136;-76
2022/06/27 08:43:33;;;;;;;1.13;0.60;;;;;;;17.39;49.88;101543.22;4996789;28;20724;-78
2022/06/27 08:45:59;;;;;;;0.70;0.32;;;;;;;17.39;50.16;101539.75;5013342;28;20684;-79
2022/06/27 08:48:28;;;;;;;0.93;0.40;;;;;;;17.39;49.62;101527.38;4982264;28;20057;-79
2022/06/27 08:50:56;;;;;;;0.93;0.70;;;;;;;17.41;50.00;101520.22;4996920;28;20029;-80
2022/06/27 08:53:25;;;;;;;1.38;0.50;;;;;;;17.55;49.26;101530.00;5011038;28;20044;-74
2022/06/27 08:55:51;;;;;;;2.15;0.47;;;;;;;17.50;50.04;101524.16;4997308;28;20041;-77
2022/06/27 08:58:17;;;;;;;1.10;0.60;;;;;;;17.33;50.20;101511.03;4996997;28;20285;-76
2022/06/27 09:00:45;;;;;;;2.55;0.60;;;;;;;17.41;50.50;101520.22;4993705;28;20034;-78
2022/06/27 09:03:18;;;;;;;6.60;0.57;;;;;;;17.38;50.08;101519.53;4982503;28;20042;-80
2022/06/27 09:05:57;;;;;;;3.28;0.40;;;;;;;17.30;50.29;101500.66;4997668;28;20030;-75
2022/06/27 09:08:27;;;;;;;2.58;0.60;;;;;;;17.17;51.14;101514.56;4998541;28;20390;-79
2022/06/27 09:10:53;;;;;;;1.63;0.40;;;;;;;17.14;50.99;101533.25;4996560;28;20180;-79
2022/06/27 09:13:20;;;;;;;3.13;1.23;;;;;;;17.06;51.49;101530.19;4997476;28;20039;-77
2022/06/27 09:15:51;;;;;;;3.00;0.77;;;;;;;17.21;51.62;101534.59;4978986;28;20034;-81
2022/06/27 09:18:20;;;;;;;1.30;0.82;;;;;;;16.91;51.60;101547.78;4983146;28;20079;-80
2022/06/27 09:21:01;;;;;;;1.10;0.68;;;;;;;16.88;51.86;101547.06;4997431;28;20044;-78
2022/06/27 09:23:31;;;;;;;1.65;1.13;;;;;;;17.07;52.48;101541.59;4979992;28;20104;-79
2022/06/27 09:26:02;;;;;;;1.00;0.63;;;;;;;16.76;52.39;101549.47;4994117;28;20038;-77
2022/06/27 09:28:50;;;;;;;0.90;0.40;;;;;;;16.75;52.20;101547.75;4979680;28;20046;-78
2022/06/27 09:31:30;;;;;;;3.88;0.40;;;;;;;16.78;52.47;101542.31;5012865;28;20044;-78
2022/06/27 09:33:59;;;;;;;4.97;0.70;;;;;;;16.76;52.77;101544.19;5011618;28;20152;-75
2022/06/27 09:36:27;;;;;;;3.65;0.68;;;;;;;16.87;52.67;101555.91;4983461;28;20073;-78
2022/06/27 09:38:52;;;;;;;3.08;0.75;;;;;;;16.79;52.67;101565.13;5011496;28;20045;-76
2022/06/27 09:41:20;;;;;;;1.48;0.68;;;;;;;16.77;52.04;101572.28;4998943;28;20049;-76
2022/06/27 09:43:48;;;;;;;3.05;0.47;;;;;;;16.73;52.11;101576.00;4996549;28;20054;-75
2022/06/27 09:46:15;;;;;;;1.55;0.80;;;;;;;16.78;52.37;101584.56;5010283;28;20080;-77
2022/06/27 09:48:45;;;;;;;1.45;0.90;;;;;;;16.80;52.76;101582.69;4996449;28;20057;-78
2022/06/27 09:51:15;;;;;;;3.03;0.77;;;;;;;16.79;52.49;101580.13;4998834;28;20033;-77
2022/06/27 09:53:48;;;;;;;0.85;0.50;;;;;;;16.82;52.62;101570.25;4994957;28;20046;-78
2022/06/27 09:56:16;;;;;;;2.33;0.70;;;;;;;16.73;52.92;101578.66;4997248;28;20061;-78
2022/06/27 09:58:43;;;;;;;1.27;0.70;;;;;;;16.89;52.71;101577.81;5011249;28;20130;-79
2022/06/27 10:01:10;;;;;;;2.55;0.77;;;;;;;16.88;52.61;101578.75;5000203;28;20030;-77
2022/06/27 10:03:37;;;;;;;1.52;0.82;;;;;;;16.90;52.09;101574.25;4993705;28;20532;-79
2022/06/27 10:06:07;;;;;;;6.22;1.05;;;;;;;16.91;52.39;101562.75;4991001;28;20108;-79
2022/06/27 10:08:36;;;;;;;5.55;0.88;;;;;;;16.89;52.19;101556.69;4994263;28;20040;-78
2022/06/27 10:11:06;;;;;;;2.05;0.70;;;;;;;16.97;52.72;101563.25;4995393;28;20109;-78
2022/06/27 10:13:33;;;;;;;1.65;0.82;;;;;;;17.05;52.28;101568.09;4998538;28;20042;-78
2022/06/27 10:16:04;;;;;;;2.17;0.75;;;;;;;17.24;52.04;101571.38;4996465;28;20038;-79
2022/06/27 10:18:53;;;;;;;0.90;0.50;;;;;;;17.35;51.74;101572.56;4996201;28;20033;-78
2022/06/27 10:21:27;;;;;;;1.58;0.65;;;;;;;17.42;51.62;101581.84;4979690;28;20040;-79
2022/06/27 10:24:18;;;;;;;1.70;0.80;;;;;;;17.41;50.82;101596.00;4991772;28;20519;-77
2022/06/27 10:26:44;;;;;;;2.85;0.77;;;;;;;17.41;50.86;101593.38;4982621;28;20034;-77
2022/06/27 10:29:28;;;;;;;1.48;0.60;;;;;;;17.36;51.06;101600.72;4993539;28;20044;-77
2022/06/27 10:31:54;;;;;;;1.25;0.85;;;;;;;17.42;50.51;101606.47;4994991;28;20052;-77
2022/06/27 10:34:43;;;;;;;1.55;0.63;;;;;;;17.53;50.65;101605.03;4995209;28;20851;-78
2022/06/27 10:37:24;;;;;;;4.50;0.70;;;;;;;17.32;50.72;101605.31;4983407;28;20050;-78
2022/06/27 10:39:51;;;;;;;3.45;0.70;;;;;;;17.28;51.08;101602.94;4991951;28;20041;-76
2022/06/27 10:42:52;;;;;;;1.60;0.50;;;;;;;17.15;51.42;101608.91;4994545;28;20129;-77
2022/06/27 10:45:20;;;;;;;0.93;0.50;;;;;;;16.74;51.90;101612.03;4977488;28;20578;-78
2022/06/27 10:47:53;;;;;;;1.00;0.40;;;;;;;16.56;52.34;101624.41;4995048;28;20057;-78
2022/06/27 10:50:20;;;;;;;1.17;0.52;;;;;;;16.55;52.47;101624.50;4995809;28;20748;-77
2022/06/27 10:52:46;;;;;;;1.25;0.70;;;;;;;16.41;52.83;101634.00;5007669;28;20052;-76
2022/06/27 10:55:40;;;;;;;1.38;0.43;;;;;;;16.19;53.89;101631.63;4996513;28;20025;-76
2022/06/27 10:58:23;;;;;;;1.67;0.60;;;;;;;16.03;54.38;101625.44;4991342;28;20045;-76
2022/06/27 11:00:49;;;;;;;1.83;0.88;;;;;;;15.95;54.67;101617.91;4995147;28;20038;-76
2022/06/27 11:03:26;;;;;;;2.65;1.27;;;;;;;16.10;54.67;101605.72;4990448;28;20041;-77
2022/06/27 11:06:06;;;;;;;2.40;1.17;;;;;;;16.16;54.69;101599.31;4995901;28;20049;-78
2022/06/27 11:08:37;;;;;;;2.35;0.82;;;;;;;16.32;54.57;101571.19;4978198;28;20776;-76
2022/06/27 11:11:04;;;;;;;3.58;1.30;;;;;;;16.41;54.19;101575.94;5009816;28;20030;-79
2022/06/27 11:13:45;;;;;;;1.25;0.98;;;;;;;16.47;54.35;101598.53;5012392;28;20049;-78
2022/06/27 11:16:14;;;;;;;2.40;0.77;;;;;;;16.24;54.67;101617.34;4999130;28;20128;-79
2022/06/27 11:21:51;;;;;;;1.42;1.00;;;;;;;16.03;55.58;101624.59;4996167;28;20049;-78
2022/06/27 11:24:17;;;;;;;3.08;0.80;;;;;;;15.84;55.54;101633.41;4995149;28;20109;-78
2022/06/27 11:26:47;;;;;;;3.03;1.25;;;;;;;15.79;55.96;101636.28;4993106;28;20088;-78
2022/06/27 11:32:12;;;;;;;1.88;1.27;;;;;;;15.70;55.77;101635.88;4994948;28;20594;-81
2022/06/27 11:34:43;;;;;;;1.55;1.08;;;;;;;15.36;56.53;101627.00;4993228;28;20029;-77
2022/06/27 11:37:14;;;;;;;1.23;0.88;;;;;;;15.56;56.56;101628.66;5008077;28;20038;-78
2022/06/27 11:39:41;;;;;;;2.47;1.23;;;;;;;15.65;56.32;101640.53;4982703;28;20917;-81
2022/06/27 11:42:10;;;;;;;1.70;0.73;;;;;;;15.25;57.09;101645.09;4990390;28;20077;-79
2022/06/27 11:45:10;;;;;;;3.85;1.10;;;;;;;15.77;56.14;101643.41;4995232;28;20087;-79
2022/06/27 11:47:39;;;;;;;2.85;1.02;;;;;;;15.61;55.98;101634.53;4993373;28;20131;-79
2022/06/27 11:50:13;;;;;;;3.50;1.27;;;;;;;15.66;56.53;101618.50;4994768;28;20034;-79
2022/06/27 11:52:44;;;;;;;2.17;1.30;;;;;;;15.72;56.12;101612.94;4993416;28;20058;-79
2022/06/27 11:55:24;;;;;;;1.73;1.63;;;;;;;16.02;55.83;101614.97;4992732;28;20213;-79
2022/06/27 11:57:56;;;;;;;2.25;1.52;;;;;;;16.03;55.83;101616.69;5009170;28;20053;-76
2022/06/27 12:00:41;;;;;;;2.63;1.33;;;;;;;15.78;56.37;101624.03;4992405;28;20103;-77
2022/06/27 12:03:09;;;;;;;3.53;1.67;;;;;;;15.59;56.85;101616.19;4974407;28;20060;-77
2022/06/27 12:05:38;;;;;;;2.75;1.83;;;;;;;16.11;56.29;101609.25;5009805;28;20030;-78
2022/06/27 12:08:09;;;;;;;2.47;1.23;;;;;;;16.24;55.43;101612.06;4992660;28;20033;-78
2022/06/27 12:10:35;;;;;;;2.75;2.28;;;;;;;16.19;56.35;101613.16;4979882;28;20069;-79
2022/06/27 12:13:07;;;;;;;5.10;2.25;;;;;;;16.53;55.30;101610.53;4988686;28;20080;-75
2022/06/27 12:15:35;;;;;;;6.55;1.88;;;;;;;15.87;56.44;101606.91;4996091;28;20033;-78
2022/06/27 12:18:02;;;;;;;3.35;1.63;;;;;;;16.27;55.44;101599.59;5005991;28;20110;-79
2022/06/27 12:20:33;;;;;;;3.95;1.65;;;;;;;16.20;55.84;101606.97;4995229;28;20042;-78
2022/06/27 12:22:58;;;;;;;1.92;1.73;;;;;;;16.03;55.42;101604.34;4978207;28;20147;-78
2022/06/27 12:25:24;;;;;;;1.92;1.52;;;;;;;16.00;56.03;101602.72;5007608;28;20734;-77
2022/06/27 12:27:50;;;;;;;2.03;1.33;;;;;;;16.09;55.84;101606.69;4988684;28;20192;-77
2022/06/27 12:30:17;;;;;;;4.30;2.15;;;;;;;16.10;54.99;101608.38;4993855;28;20774;-78
2022/06/27 12:32:44;;;;;;;2.90;1.55;;;;;;;15.90;56.21;101617.28;4990900;28;20050;-78
2022/06/27 12:35:11;;;;;;;2.75;1.92;;;;;;;15.93;55.47;101625.03;4996387;28;20248;-76
2022/06/27 12:37:38;;;;;;;2.03;1.48;;;;;;;16.21;55.03;101627.13;4994853;28;20069;-78
2022/06/27 12:40:07;;;;;;;3.70;1.95;;;;;;;16.34;55.30;101632.63;4993745;28;20037;-78